Time;durP1;ratioP1;P1;durP2;ratioP2;P2;SDS_P1;SDS_P2;PMS_P1;PMS_P2;Temp;Humidity;BMP_temperature;BMP_pressure;BME280_temperature;BME280_humidity;BME280_pressure;Samples;Min_cycle;Max_cycle;Signal;HPM_P1;HPM_P2
2021/09/28 00:04:59;;;;;;;;;;;;;;;27.67;38.31;101066.53;5015311;28;1176;-27
2021/09/28 00:07:25;;;;;;;;;;;;;;;27.65;38.55;101073.97;5014454;28;1442;-27
2021/09/28 00:09:50;;;;;;;;;;;;;;;27.74;37.81;101080.19;5007033;28;1498;-27
2021/09/28 00:12:15;;;;;;;;;;;;;;;27.73;38.10;101084.75;5015010;28;1450;-27
2021/09/28 00:14:41;;;;;;;;;;;;;;;27.72;38.22;101088.50;5015918;28;1337;-27
2021/09/28 00:17:06;;;;;;;;;;;;;;;27.80;38.05;101093.00;5015644;28;1463;-29
2021/09/28 00:19:31;;;;;;;;;;;;;;;27.69;37.98;101101.50;5015495;28;1914;-27
2021/09/28 00:21:56;;;;;;;;;;;;;;;27.77;38.00;101096.06;5014807;28;1230;-27
2021/09/28 00:24:22;;;;;;;;;;;;;;;27.66;38.23;101091.84;5014001;28;1615;-27
2021/09/28 00:26:47;;;;;;;;;;;;;;;27.71;37.85;101100.31;5015547;28;1488;-29
2021/09/28 00:29:12;;;;;;;;;;;;;;;27.70;37.92;101097.78;5015648;28;1389;-27
2021/09/28 00:31:38;;;;;;;;;;;;;;;27.80;37.30;101102.94;5015399;28;1524;-27
2021/09/28 00:34:03;;;;;;;;;;;;;;;27.78;37.44;101105.84;5015531;28;733;-28
2021/09/28 00:36:28;;;;;;;;;;;;;;;27.73;37.19;101102.81;5019125;28;1052;-30
2021/09/28 00:38:53;;;;;;;;;;;;;;;27.67;37.47;101103.50;5035905;28;1895;-27
2021/09/28 00:41:19;;;;;;;;;;;;;;;27.72;37.46;101103.84;5035678;28;883;-27
2021/09/28 00:43:48;;;;;;;;;;;;;;;27.71;37.25;101113.81;5035534;28;800;-27
2021/09/28 00:46:13;;;;;;;;;;;;;;;27.69;37.09;101110.47;5036090;28;784;-27
2021/09/28 00:48:38;;;;;;;;;;;;;;;27.70;37.36;101117.56;5036039;28;731;-27
2021/09/28 00:51:04;;;;;;;;;;;;;;;27.66;37.65;101118.88;5036143;28;798;-27
2021/09/28 00:53:31;;;;;;;;;;;;;;;27.69;37.72;101118.59;5033663;28;1113;-28
2021/09/28 00:55:56;;;;;;;;;;;;;;;27.65;37.85;101129.88;5035442;28;838;-27
2021/09/28 00:58:21;;;;;;;;;;;;;;;27.59;37.85;101132.25;5034822;28;1957;-27
2021/09/28 01:00:46;;;;;;;;;;;;;;;27.62;37.92;101131.94;5036031;28;1062;-28
2021/09/28 01:03:12;;;;;;;;;;;;;;;27.66;37.87;101131.56;5035446;28;817;-28
2021/09/28 01:05:37;;;;;;;;;;;;;;;27.63;37.74;101127.34;5036020;28;768;-27
2021/09/28 01:08:02;;;;;;;;;;;;;;;27.56;38.01;101127.22;5034670;28;1412;-29
2021/09/28 01:10:28;;;;;;;;;;;;;;;27.58;38.04;101118.94;5035472;28;812;-31
2021/09/28 01:12:53;;;;;;;;;;;;;;;27.62;37.72;101121.13;5035310;28;1227;-28
2021/09/28 01:15:18;;;;;;;;;;;;;;;27.60;37.75;101122.28;5035148;28;1235;-27
2021/09/28 01:17:44;;;;;;;;;;;;;;;27.65;37.61;101125.31;5035577;28;1969;-27
2021/09/28 01:20:09;;;;;;;;;;;;;;;27.66;37.64;101126.16;5035118;28;965;-27
2021/09/28 01:22:35;;;;;;;;;;;;;;;27.60;37.33;101125.84;5034711;28;1296;-27
2021/09/28 01:25:00;;;;;;;;;;;;;;;27.58;37.79;101127.88;5035275;28;868;-27
2021/09/28 01:27:25;;;;;;;;;;;;;;;27.57;37.28;101114.56;5034916;28;870;-27
2021/09/28 01:29:51;;;;;;;;;;;;;;;27.53;37.75;101113.25;5035714;28;809;-26
2021/09/28 01:32:16;;;;;;;;;;;;;;;27.51;37.67;101111.53;5035330;28;762;-26
2021/09/28 01:34:41;;;;;;;;;;;;;;;27.57;37.34;101122.66;5034647;28;867;-28
2021/09/28 01:37:06;;;;;;;;;;;;;;;27.54;37.24;101113.06;5034748;28;1033;-27
2021/09/28 01:39:32;;;;;;;;;;;;;;;27.56;37.45;101119.09;5035084;28;1902;-27
2021/09/28 01:41:57;;;;;;;;;;;;;;;27.54;37.47;101125.72;5034714;28;773;-27
2021/09/28 01:44:22;;;;;;;;;;;;;;;27.54;37.50;101123.00;5034944;28;1163;-28
2021/09/28 01:46:48;;;;;;;;;;;;;;;27.51;37.56;101121.50;5034892;28;748;-27
2021/09/28 01:49:14;;;;;;;;;;;;;;;27.51;37.28;101130.44;5034620;28;749;-27
2021/09/28 01:51:40;;;;;;;;;;;;;;;27.49;37.03;101127.06;5034456;28;1276;-27
2021/09/28 01:54:05;;;;;;;;;;;;;;;27.51;37.13;101121.50;5034984;28;745;-27
2021/09/28 01:56:30;;;;;;;;;;;;;;;27.49;37.60;101127.06;5034589;28;833;-27
2021/09/28 01:58:59;;;;;;;;;;;;;;;27.49;37.07;101135.19;5034542;28;1975;-27
2021/09/28 02:01:24;;;;;;;;;;;;;;;27.48;37.01;101127.25;5034590;28;860;-27
2021/09/28 02:03:50;;;;;;;;;;;;;;;27.49;37.09;101128.94;5034392;28;808;-28
2021/09/28 02:06:19;;;;;;;;;;;;;;;27.51;36.78;101127.75;5034797;28;1058;-29
2021/09/28 02:08:44;;;;;;;;;;;;;;;27.47;36.78;101126.44;5035087;28;832;-28
2021/09/28 02:11:09;;;;;;;;;;;;;;;27.46;37.03;101126.63;5034192;28;1176;-27
2021/09/28 02:13:35;;;;;;;;;;;;;;;27.40;37.23;101125.44;5034592;28;1186;-27
2021/09/28 02:16:00;;;;;;;;;;;;;;;27.42;36.82;101123.41;5034375;28;780;-27
2021/09/28 02:18:25;;;;;;;;;;;;;;;27.38;36.75;101133.72;5034196;28;1970;-30
2021/09/28 02:20:50;;;;;;;;;;;;;;;27.39;36.42;101121.06;5034409;28;796;-28
2021/09/28 02:23:16;;;;;;;;;;;;;;;27.36;36.81;101130.34;5034108;28;1084;-27
2021/09/28 02:25:41;;;;;;;;;;;;;;;27.37;36.60;101123.09;5033706;28;827;-30
2021/09/28 02:28:06;;;;;;;;;;;;;;;27.43;36.78;101126.94;5034382;28;2317;-27
2021/09/28 02:30:32;;;;;;;;;;;;;;;27.37;36.87;101136.59;5034342;28;800;-28
2021/09/28 02:32:57;;;;;;;;;;;;;;;27.34;36.75;101132.38;5034040;28;733;-27
2021/09/28 02:35:22;;;;;;;;;;;;;;;27.35;36.54;101125.97;5037952;28;867;-28
2021/09/28 02:37:48;;;;;;;;;;;;;;;27.32;36.59;101131.72;5037698;28;1906;-27
2021/09/28 02:40:13;;;;;;;;;;;;;;;27.33;36.73;101116.34;5038372;28;827;-27
2021/09/28 02:42:38;;;;;;;;;;;;;;;27.37;36.36;101120.41;5038569;28;943;-28
2021/09/28 02:45:04;;;;;;;;;;;;;;;27.32;36.73;101126.31;5038031;28;970;-27
2021/09/28 02:47:29;;;;;;;;;;;;;;;27.33;36.28;101129.84;5038269;28;790;-27
2021/09/28 02:49:54;;;;;;;;;;;;;;;27.29;36.84;101125.81;5038120;28;805;-29
2021/09/28 02:52:20;;;;;;;;;;;;;;;27.31;36.50;101132.72;5037793;28;1049;-27
2021/09/28 02:54:45;;;;;;;;;;;;;;;27.32;36.14;101131.72;5019930;28;2502;-27
2021/09/28 02:57:10;;;;;;;;;;;;;;;27.32;36.68;101136.28;5017703;28;1422;-27
2021/09/28 02:59:36;;;;;;;;;;;;;;;27.40;36.38;101138.94;5017386;28;1903;-28
2021/09/28 03:02:02;;;;;;;;;;;;;;;27.39;36.42;101137.28;5012995;28;1451;-26
2021/09/28 03:04:28;;;;;;;;;;;;;;;27.34;36.02;101134.25;5016864;28;1470;-28
2021/09/28 03:06:53;;;;;;;;;;;;;;;27.30;35.92;101130.19;5018839;28;1178;-27
2021/09/28 03:09:18;;;;;;;;;;;;;;;27.33;35.62;101140.66;5017022;28;1459;-26
2021/09/28 03:11:43;;;;;;;;;;;;;;;27.40;35.50;101128.16;5015755;28;1204;-29
2021/09/28 03:14:09;;;;;;;;;;;;;;;27.39;35.92;101135.41;5022390;28;1462;-26
2021/09/28 03:16:34;;;;;;;;;;;;;;;27.42;35.79;101134.22;5004621;28;1651;-27
2021/09/28 03:18:59;;;;;;;;;;;;;;;27.38;35.76;101141.81;5015808;28;1907;-27
2021/09/28 03:21:25;;;;;;;;;;;;;;;27.11;35.37;101140.41;5019597;28;1443;-28
2021/09/28 03:23:50;;;;;;;;;;;;;;;27.04;34.92;101131.31;5017144;28;1447;-28
2021/09/28 03:26:15;;;;;;;;;;;;;;;26.94;34.91;101137.72;5016844;28;1458;-26
2021/09/28 03:28:40;;;;;;;;;;;;;;;26.73;34.66;101132.84;5013971;28;1478;-26
2021/09/28 03:31:06;;;;;;;;;;;;;;;26.79;34.60;101134.91;5016647;28;2010;-26
2021/09/28 03:33:31;;;;;;;;;;;;;;;26.68;34.58;101140.63;5016812;28;996;-27
2021/09/28 03:35:56;;;;;;;;;;;;;;;26.84;34.89;101139.78;5016412;28;1576;-26
2021/09/28 03:38:21;;;;;;;;;;;;;;;26.83;34.22;101141.63;5013063;28;1906;-26
2021/09/28 03:40:47;;;;;;;;;;;;;;;26.77;33.82;101140.47;5016357;28;1462;-28
2021/09/28 03:43:12;;;;;;;;;;;;;;;26.75;33.80;101144.34;5016601;28;1421;-27
2021/09/28 03:45:38;;;;;;;;;;;;;;;26.62;33.64;101153.81;5016731;28;1423;-27
2021/09/28 03:48:03;;;;;;;;;;;;;;;26.43;33.90;101151.44;5016141;28;1766;-30
2021/09/28 03:50:29;;;;;;;;;;;;;;;26.34;34.34;101159.50;5016463;28;897;-27
2021/09/28 03:52:54;;;;;;;;;;;;;;;26.38;34.14;101157.34;5011971;28;1626;-26
2021/09/28 03:55:20;;;;;;;;;;;;;;;26.27;34.22;101158.50;5015759;28;1549;-26
2021/09/28 03:57:51;;;;;;;;;;;;;;;26.35;33.75;101158.53;5016085;28;1894;-23
2021/09/28 04:00:17;;;;;;;;;;;;;;;26.32;34.16;101156.13;5004651;28;1406;-24
2021/09/28 04:02:42;;;;;;;;;;;;;;;26.11;34.28;101154.75;5010496;28;1404;-23
2021/09/28 04:05:08;;;;;;;;;;;;;;;26.08;34.37;101154.22;5016386;28;1638;-23
2021/09/28 04:07:35;;;;;;;;;;;;;;;26.00;34.20;101152.38;5016727;28;1588;-23
2021/09/28 04:10:01;;;;;;;;;;;;;;;26.20;33.98;101152.91;5015871;28;1542;-28
2021/09/28 04:12:26;;;;;;;;;;;;;;;26.52;33.67;101161.22;5007650;28;1464;-23
2021/09/28 04:14:53;;;;;;;;;;;;;;;26.65;33.57;101156.16;5006519;28;1272;-23
2021/09/28 04:17:19;;;;;;;;;;;;;;;26.79;33.47;101161.88;5005675;28;1107;-23
2021/09/28 04:19:44;;;;;;;;;;;;;;;26.82;33.49;101158.00;5008486;28;1997;-21
2021/09/28 04:22:09;;;;;;;;;;;;;;;26.90;33.79;101153.44;5011696;28;1439;-22
2021/09/28 04:24:34;;;;;;;;;;;;;;;27.13;33.27;101160.81;4996909;28;1538;-22
2021/09/28 04:27:00;;;;;;;;;;;;;;;27.28;32.98;101154.69;4995588;28;1491;-22
2021/09/28 04:29:25;;;;;;;;;;;;;;;27.17;33.40;101153.22;4997096;28;1695;-24
2021/09/28 04:31:50;;;;;;;;;;;;;;;27.39;33.56;101148.09;4997034;28;1720;-23
2021/09/28 04:34:15;;;;;;;;;;;;;;;27.37;33.50;101148.25;5005820;28;1301;-25
2021/09/28 04:36:41;;;;;;;;;;;;;;;27.55;33.46;101146.31;5008778;28;1254;-25
2021/09/28 04:39:06;;;;;;;;;;;;;;;27.56;33.71;101142.59;5007673;28;1890;-23
2021/09/28 04:41:31;;;;;;;;;;;;;;;27.69;33.59;101144.75;5012387;28;1525;-23
2021/09/28 04:43:56;;;;;;;;;;;;;;;27.58;33.73;101151.34;5008074;28;1634;-23
2021/09/28 04:46:23;;;;;;;;;;;;;;;27.54;34.29;101148.19;4997272;28;1476;-24
2021/09/28 04:48:48;;;;;;;;;;;;;;;27.53;34.66;101140.25;4996609;28;1465;-24
2021/09/28 04:51:13;;;;;;;;;;;;;;;27.64;34.45;101145.25;4996458;28;1689;-25
2021/09/28 04:53:39;;;;;;;;;;;;;;;27.74;34.32;101143.19;5006450;28;1287;-24
2021/09/28 04:56:04;;;;;;;;;;;;;;;27.74;34.10;101151.28;4997694;28;1561;-23
2021/09/28 04:58:30;;;;;;;;;;;;;;;27.74;34.26;101142.38;4998761;28;1899;-23
2021/09/28 05:00:55;;;;;;;;;;;;;;;27.88;34.31;101138.03;4998274;28;1665;-24
2021/09/28 05:03:20;;;;;;;;;;;;;;;27.81;34.11;101132.50;5011411;28;1503;-25
2021/09/28 05:05:47;;;;;;;;;;;;;;;27.84;34.33;101147.53;5014936;28;1537;-24
2021/09/28 05:08:12;;;;;;;;;;;;;;;27.77;34.42;101160.94;5015155;28;1262;-23
2021/09/28 05:10:37;;;;;;;;;;;;;;;27.80;34.23;101160.56;5015233;28;1492;-23
2021/09/28 05:13:03;;;;;;;;;;;;;;;27.87;33.76;101155.28;5008346;28;1267;-24
2021/09/28 05:15:28;;;;;;;;;;;;;;;27.91;34.02;101151.19;5010190;28;1604;-24
2021/09/28 05:17:54;;;;;;;;;;;;;;;27.95;33.70;101155.25;5012266;28;1961;-24
2021/09/28 05:20:19;;;;;;;;;;;;;;;27.92;33.93;101163.72;5001287;28;1463;-24
2021/09/28 05:22:44;;;;;;;;;;;;;;;27.85;33.66;101160.03;5006315;28;1319;-24
2021/09/28 05:25:09;;;;;;;;;;;;;;;27.91;33.72;101153.91;5004130;28;1689;-22
2021/09/28 05:27:35;;;;;;;;;;;;;;;27.92;34.00;101152.91;5005698;28;1533;-24
2021/09/28 05:30:01;;;;;;;;;;;;;;;27.93;33.99;101153.72;5006898;28;1282;-22
2021/09/28 05:32:26;;;;;;;;;;;;;;;28.10;33.67;101158.03;5006449;28;1647;-22
2021/09/28 05:34:51;;;;;;;;;;;;;;;28.15;33.57;101151.22;5010608;28;1492;-24
2021/09/28 05:37:16;;;;;;;;;;;;;;;28.16;33.62;101159.16;5008121;28;1368;-25
2021/09/28 05:39:42;;;;;;;;;;;;;;;28.18;33.45;101167.06;5011297;28;1902;-23
2021/09/28 05:42:07;;;;;;;;;;;;;;;28.04;33.84;101169.56;4998000;28;1598;-24
2021/09/28 05:44:32;;;;;;;;;;;;;;;28.14;33.48;101174.72;5001374;28;1407;-23
2021/09/28 05:46:58;;;;;;;;;;;;;;;28.06;33.64;101169.38;5006158;28;1613;-23
2021/09/28 05:49:23;;;;;;;;;;;;;;;28.11;33.81;101178.63;5004182;28;1555;-24
2021/09/28 05:51:52;;;;;;;;;;;;;;;28.10;33.82;101185.06;5013043;28;1524;-25
2021/09/28 05:54:19;;;;;;;;;;;;;;;28.10;33.52;101186.91;5003390;28;1851;-23
2021/09/28 05:56:46;;;;;;;;;;;;;;;28.15;33.73;101186.38;5009677;28;1427;-22
2021/09/28 05:59:11;;;;;;;;;;;;;;;28.19;33.72;101193.13;5005637;28;1903;-24
2021/09/28 06:01:36;;;;;;;;;;;;;;;28.19;33.73;101195.81;5007775;28;1466;-26
2021/09/28 06:04:01;;;;;;;;;;;;;;;28.12;33.64;101193.00;5014123;28;1443;-26
2021/09/28 06:06:27;;;;;;;;;;;;;;;28.17;33.72;101205.97;5014484;28;1580;-25
2021/09/28 06:08:53;;;;;;;;;;;;;;;28.15;33.61;101200.75;5001103;28;1400;-23
2021/09/28 06:11:18;;;;;;;;;;;;;;;28.20;33.61;101201.06;5012097;28;1536;-25
2021/09/28 06:13:43;;;;;;;;;;;;;;;27.93;31.67;101205.94;5016211;28;1640;-23
2021/09/28 06:16:08;;;;;;;;;;;;;;;27.73;30.98;101209.09;5014218;28;1495;-23
2021/09/28 06:18:34;;;;;;;;;;;;;;;27.60;30.91;101211.47;5005392;28;1903;-23
2021/09/28 06:20:59;;;;;;;;;;;;;;;27.72;31.42;101212.81;5014201;28;1197;-24
2021/09/28 06:23:24;;;;;;;;;;;;;;;27.82;32.34;101206.34;5013015;28;1353;-23
2021/09/28 06:25:49;;;;;;;;;;;;;;;27.92;32.19;101217.78;5013862;28;1433;-23
2021/09/28 06:28:15;;;;;;;;;;;;;;;28.02;32.61;101214.88;5007486;28;1448;-23
2021/09/28 06:30:42;;;;;;;;;;;;;;;28.00;33.10;101219.59;5013312;28;1585;-24
2021/09/28 06:33:08;;;;;;;;;;;;;;;27.82;32.40;101223.41;5014312;28;1535;-23
2021/09/28 06:35:33;;;;;;;;;;;;;;;27.79;32.29;101222.94;5013628;28;1590;-24
2021/09/28 06:38:00;;;;;;;;;;;;;;;27.78;32.46;101229.38;5013203;28;1956;-23
2021/09/28 06:40:25;;;;;;;;;;;;;;;27.77;31.85;101224.94;5013398;28;1354;-24
2021/09/28 06:42:51;;;;;;;;;;;;;;;27.72;31.84;101223.63;5002351;28;1546;-23
2021/09/28 06:45:16;;;;;;;;;;;;;;;27.75;32.22;101223.28;5013511;28;1439;-24
2021/09/28 06:47:41;;;;;;;;;;;;;;;27.74;32.16;101224.28;5013678;28;1644;-23
2021/09/28 06:50:07;;;;;;;;;;;;;;;27.90;32.48;101227.09;5011380;28;1715;-21
2021/09/28 06:52:32;;;;;;;;;;;;;;;27.95;32.92;101228.25;5012400;28;1693;-23
2021/09/28 06:54:57;;;;;;;;;;;;;;;28.08;33.23;101222.25;5013427;28;1503;-23
2021/09/28 06:57:23;;;;;;;;;;;;;;;28.23;32.71;101222.34;5013843;28;1692;-23
2021/09/28 06:59:48;;;;;;;;;;;;;;;28.16;33.30;101226.75;5008732;28;1894;-24
2021/09/28 07:02:13;;;;;;;;;;;;;;;28.16;32.69;101224.06;5011170;28;1459;-24
2021/09/28 07:04:38;;;;;;;;;;;;;;;28.09;33.20;101221.22;5013589;28;1478;-23
2021/09/28 07:07:04;;;;;;;;;;;;;;;28.12;33.42;101220.03;5014182;28;1092;-23
2021/09/28 07:09:29;;;;;;;;;;;;;;;28.21;33.23;101221.66;5012917;28;1523;-23
2021/09/28 07:11:54;;;;;;;;;;;;;;;28.31;33.08;101223.31;5013440;28;1708;-25
2021/09/28 07:14:19;;;;;;;;;;;;;;;28.27;32.82;101230.09;5013861;28;1391;-24
2021/09/28 07:16:45;;;;;;;;;;;;;;;28.29;32.57;101226.19;5013456;28;1268;-24
2021/09/28 07:19:10;;;;;;;;;;;;;;;28.30;32.79;101225.16;5012871;28;1983;-25
2021/09/28 07:21:36;;;;;;;;;;;;;;;28.31;32.35;101226.84;5015452;28;1927;-23
2021/09/28 07:24:01;;;;;;;;;;;;;;;28.34;32.51;101223.81;5017217;28;1560;-24
2021/09/28 07:26:26;;;;;;;;;;;;;;;28.25;32.78;101224.84;5016935;28;1130;-22
2021/09/28 07:28:51;;;;;;;;;;;;;;;28.42;32.42;101217.50;5016566;28;1397;-24
2021/09/28 07:31:17;;;;;;;;;;;;;;;28.40;32.45;101219.53;5015254;28;1353;-22
2021/09/28 07:33:42;;;;;;;;;;;;;;;28.43;32.42;101221.88;5016923;28;1585;-24
2021/09/28 07:36:08;;;;;;;;;;;;;;;28.51;32.33;101214.75;5016720;28;1549;-25
2021/09/28 07:38:33;;;;;;;;;;;;;;;28.54;32.41;101226.06;5021078;28;1964;-24
2021/09/28 07:40:58;;;;;;;;;;;;;;;28.63;32.22;101231.41;5015036;28;1534;-23
2021/09/28 07:43:24;;;;;;;;;;;;;;;28.66;32.24;101226.44;5009447;28;1734;-22
2021/09/28 07:45:49;;;;;;;;;;;;;;;28.68;32.43;101229.81;5014779;28;1748;-22
2021/09/28 07:48:14;;;;;;;;;;;;;;;28.63;32.71;101240.34;5016453;28;1465;-22
2021/09/28 07:50:40;;;;;;;;;;;;;;;28.68;32.36;101234.38;5015805;28;1446;-22
2021/09/28 07:53:08;;;;;;;;;;;;;;;28.74;32.13;101239.09;5015720;28;1046;-22
2021/09/28 07:55:33;;;;;;;;;;;;;;;28.74;32.12;101241.78;5016948;28;1556;-22
2021/09/28 07:57:59;;;;;;;;;;;;;;;28.73;31.96;101234.66;5010995;28;1919;-22
2021/09/28 08:00:24;;;;;;;;;;;;;;;28.68;31.67;101240.63;5008615;28;1539;-22
2021/09/28 08:02:49;;;;;;;;;;;;;;;28.83;31.66;101235.28;5005084;28;1697;-24
2021/09/28 08:05:15;;;;;;;;;;;;;;;28.69;31.79;101230.66;5012515;28;1685;-22
2021/09/28 08:07:40;;;;;;;;;;;;;;;28.67;31.75;101236.25;5017592;28;1018;-24
2021/09/28 08:10:08;;;;;;;;;;;;;;;28.61;31.99;101237.00;5003676;28;1557;-24
2021/09/28 08:12:33;;;;;;;;;;;;;;;28.62;32.28;101235.97;5003909;28;1416;-23
2021/09/28 08:14:59;;;;;;;;;;;;;;;28.67;32.27;101224.59;5014009;28;1395;-24
2021/09/28 08:17:24;;;;;;;;;;;;;;;28.65;31.78;101241.00;5006655;28;1687;-23
2021/09/28 08:19:51;;;;;;;;;;;;;;;28.78;31.46;101228.75;5015687;28;1968;-23
2021/09/28 08:22:17;;;;;;;;;;;;;;;28.78;32.32;101226.03;5016419;28;1644;-23
2021/09/28 08:24:42;;;;;;;;;;;;;;;28.72;32.23;101227.59;5015620;28;1495;-24
2021/09/28 08:29:52;;;;;;;;;;;;;;;28.72;31.79;101224.88;5015874;28;1459;-22
2021/09/28 08:32:17;;;;;;;;;;;;;;;28.85;31.72;101233.22;5013129;28;1388;-24
2021/09/28 08:34:42;;;;;;;;;;;;;;;28.74;31.71;101230.97;5015334;28;1167;-24
2021/09/28 08:37:08;;;;;;;;;;;;;;;28.75;31.61;101227.22;5019013;28;1504;-25
2021/09/28 08:39:33;;;;;;;;;;;;;;;28.54;32.77;101220.63;5015533;28;1898;-24
2021/09/28 08:41:58;;;;;;;;;;;;;;;28.70;31.65;101218.81;5014973;28;1461;-22
2021/09/28 08:44:24;;;;;;;;;;;;;;;28.70;31.31;101219.66;5013892;28;1699;-24
2021/09/28 08:46:49;;;;;;;;;;;;;;;28.70;31.65;101219.66;5015129;28;1524;-22
2021/09/28 08:49:15;;;;;;;;;;;;;;;28.73;31.32;101221.13;5015096;28;1608;-24
2021/09/28 08:51:40;;;;;;;;;;;;;;;28.69;31.04;101217.13;5009207;28;1375;-23
2021/09/28 08:54:06;;;;;;;;;;;;;;;28.66;31.21;101217.50;5005314;28;1592;-22
2021/09/28 08:56:31;;;;;;;;;;;;;;;28.69;31.18;101228.81;5002176;28;1678;-23
2021/09/28 08:59:02;;;;;;;;;;;;;;;28.66;31.17;101226.44;5002211;28;1898;-23
2021/09/28 09:01:27;;;;;;;;;;;;;;;28.62;30.63;101219.72;4996805;28;1183;-22
2021/09/28 09:03:53;;;;;;;;;;;;;;;28.63;31.16;101224.09;5012681;28;1518;-23
2021/09/28 09:06:18;;;;;;;;;;;;;;;28.72;30.25;101227.59;5004607;28;1946;-22
2021/09/28 09:08:48;;;;;;;;;;;;;;;28.51;31.10;101222.84;5008488;28;1386;-24
2021/09/28 09:11:14;;;;;;;;;;;;;;;28.52;30.98;101229.94;5015062;28;1511;-22
2021/09/28 09:13:43;;;;;;;;;;;;;;;28.68;30.02;101218.97;5008950;28;1604;-24
2021/09/28 09:16:10;;;;;;;;;;;;;;;28.70;30.11;101219.66;5014280;28;1456;-25
2021/09/28 09:18:36;;;;;;;;;;;;;;;28.63;30.13;101213.28;5014925;28;1910;-24
2021/09/28 09:21:02;;;;;;;;;;;;;;;28.66;29.84;101218.31;5014579;28;1436;-25
2021/09/28 09:23:28;;;;;;;;;;;;;;;28.73;29.14;101221.13;5013749;28;1299;-24
2021/09/28 09:26:01;;;;;;;;;;;;;;;28.60;29.19;101222.59;5014732;28;1540;-23
2021/09/28 09:28:33;;;;;;;;;;;;;;;28.55;29.37;101230.44;5013837;28;1651;-24
2021/09/28 09:31:11;;;;;;;;;;;;;;;28.60;29.35;101230.72;5002826;28;1466;-24
2021/09/28 09:33:37;;;;;;;;;;;;;;;28.56;29.02;101232.09;5012018;28;1413;-24
2021/09/28 09:36:03;;;;;;;;;;;;;;;28.56;29.27;101234.00;5014577;28;1101;-24
2021/09/28 09:38:28;;;;;;;;;;;;;;;28.58;29.39;101238.19;5016257;28;2013;-23
2021/09/28 09:40:53;;;;;;;;;;;;;;;28.63;29.43;101234.09;5009806;28;1659;-24
2021/09/28 09:43:27;;;;;;;;;;;;;;;28.56;29.80;101245.63;5016573;28;1475;-23
2021/09/28 09:46:05;;;;;;;;;;;;;;;28.47;29.74;101244.88;5019573;28;1397;-25
2021/09/28 09:48:32;;;;;;;;;;;;;;;28.54;29.69;101244.16;5009755;28;1518;-24
2021/09/28 09:51:02;;;;;;;;;;;;;;;28.48;29.65;101245.69;5001447;28;1591;-23
2021/09/28 09:53:27;;;;;;;;;;;;;;;28.51;29.81;101244.50;5012262;28;1353;-25
2021/09/28 09:55:52;;;;;;;;;;;;;;;28.36;29.87;101243.41;5003034;28;2170;-23
2021/09/28 09:58:18;;;;;;;;;;;;;;;28.21;31.65;101240.59;5004675;28;1895;-24
2021/09/28 10:00:43;;;;;;;;;;;;;;;28.19;30.50;101245.38;5006298;28;1449;-23
2021/09/28 10:03:11;;;;;;;;;;;;;;;28.19;31.82;101252.63;5001977;28;1243;-25
2021/09/28 10:05:36;;;;;;;;;;;;;;;28.39;30.83;101244.94;5004967;28;1722;-25
2021/09/28 10:08:07;;;;;;;;;;;;;;;28.47;30.45;101250.28;5002854;28;1465;-22
2021/09/28 10:10:32;;;;;;;;;;;;;;;28.58;30.40;101251.72;5022189;28;1263;-24
2021/09/28 10:12:57;;;;;;;;;;;;;;;28.43;31.24;101245.38;5002530;28;1265;-24
2021/09/28 10:15:22;;;;;;;;;;;;;;;28.57;31.02;101251.91;4999453;28;2033;-25
2021/09/28 10:17:48;;;;;;;;;;;;;;;28.66;31.41;101263.50;5009085;28;1971;-23
2021/09/28 10:20:22;;;;;;;;;;;;;;;28.67;31.00;101257.91;5005224;28;1622;-24
2021/09/28 10:22:55;;;;;;;;;;;;;;;28.58;30.85;101262.53;5009169;28;2281;-24
2021/09/28 10:25:20;;;;;;;;;;;;;;;28.43;30.84;101267.88;5009031;28;1689;-23
2021/09/28 10:27:46;;;;;;;;;;;;;;;28.43;30.65;101267.88;5003944;28;1728;-24
2021/09/28 10:30:23;;;;;;;;;;;;;;;28.39;31.00;101265.72;5005057;28;1607;-23
2021/09/28 10:32:48;;;;;;;;;;;;;;;28.32;30.86;101263.72;5023508;28;2033;-23
2021/09/28 10:35:14;;;;;;;;;;;;;;;28.40;30.70;101260.13;5005454;28;1532;-24
2021/09/28 10:37:55;;;;;;;;;;;;;;;28.34;30.67;101255.44;5007936;28;1308;-22
2021/09/28 10:40:20;;;;;;;;;;;;;;;28.42;30.82;101260.81;5004493;28;1465;-23
2021/09/28 10:42:55;;;;;;;;;;;;;;;28.41;30.91;101264.50;5006513;28;1331;-22
2021/09/28 10:45:30;;;;;;;;;;;;;;;28.44;31.01;101257.91;5003656;28;1328;-24
2021/09/28 10:48:10;;;;;;;;;;;;;;;28.47;30.82;101266.53;5010450;28;1379;-25
2021/09/28 10:50:42;;;;;;;;;;;;;;;28.53;30.96;101254.13;5003539;28;1373;-23
2021/09/28 10:53:08;;;;;;;;;;;;;;;28.53;31.19;101274.94;5011219;28;1527;-25
2021/09/28 10:55:40;;;;;;;;;;;;;;;28.56;30.54;101278.13;5011799;28;1287;-24
2021/09/28 10:58:15;;;;;;;;;;;;;;;28.53;30.40;101277.66;5017942;28;1965;-22
2021/09/28 11:00:40;;;;;;;;;;;;;;;28.49;30.64;101271.75;5017683;28;1619;-23
2021/09/28 11:03:05;;;;;;;;;;;;;;;28.42;30.82;101270.78;5017951;28;808;-23
2021/09/28 11:05:31;;;;;;;;;;;;;;;28.44;30.80;101272.28;5016738;28;1616;-23
2021/09/28 11:07:57;;;;;;;;;;;;;;;28.48;30.81;101273.59;5006208;28;1530;-25
2021/09/28 11:10:22;;;;;;;;;;;;;;;28.57;30.79;101276.25;5011898;28;1608;-26
2021/09/28 11:12:47;;;;;;;;;;;;;;;28.55;30.92;101273.72;5017938;28;980;-25
2021/09/28 11:15:22;;;;;;;;;;;;;;;28.47;31.09;101271.94;5037686;28;1271;-26
2021/09/28 11:17:48;;;;;;;;;;;;;;;28.42;31.16;101271.63;5028795;28;1270;-24
2021/09/28 11:20:31;;;;;;;;;;;;;;;28.35;31.67;101267.94;5011255;28;1621;-24
2021/09/28 11:23:00;;;;;;;;;;;;;;;28.31;31.84;101274.72;5009933;28;1246;-24
2021/09/28 11:25:30;;;;;;;;;;;;;;;28.27;32.22;101267.97;5000345;28;1239;-24
2021/09/28 11:28:08;;;;;;;;;;;;;;;28.21;33.26;101269.53;4999565;28;1748;-22
2021/09/28 11:30:34;;;;;;;;;;;;;;;28.28;32.11;101265.06;5016923;28;1737;-25
2021/09/28 11:33:03;;;;;;;;;;;;;;;28.30;31.65;101265.75;5016791;28;1275;-24
2021/09/28 11:35:28;;;;;;;;;;;;;;;28.36;31.26;101270.47;5017191;28;1360;-24
2021/09/28 11:37:56;;;;;;;;;;;;;;;28.35;32.24;101270.66;5020113;28;1963;-24
2021/09/28 11:40:22;;;;;;;;;;;;;;;28.26;31.94;101260.88;5016788;28;1250;-24
2021/09/28 11:42:47;;;;;;;;;;;;;;;27.00;31.74;101268.47;5015695;28;1480;-23
2021/09/28 11:45:12;;;;;;;;;;;;;;;26.55;31.53;101265.25;5016404;28;1543;-23
2021/09/28 11:47:41;;;;;;;;;;;;;;;26.53;31.57;101260.88;5016761;28;1356;-24
2021/09/28 11:50:06;;;;;;;;;;;;;;;26.22;31.56;101266.00;5017393;28;1295;-24
2021/09/28 11:52:34;;;;;;;;;;;;;;;26.65;31.78;101264.09;5029221;28;1103;-21
2021/09/28 11:54:59;;;;;;;;;;;;;;;27.14;31.21;101275.09;5026192;28;1888;-23
2021/09/28 11:57:25;;;;;;;;;;;;;;;26.61;31.48;101270.00;4998138;28;835;-24
2021/09/28 11:59:50;;;;;;;;;;;;;;;27.03;30.53;101276.25;5007124;28;1890;-23
2021/09/28 12:02:16;;;;;;;;;;;;;;;27.28;31.22;101273.53;5005816;28;1502;-23
2021/09/28 12:10:02;;;;;;;;;;;;;;;26.61;32.47;101280.78;5013554;28;1588;-23
2021/09/28 12:12:27;;;;;;;;;;;;;;;26.58;31.87;101275.72;5014722;28;1482;-23
2021/09/28 12:14:56;;;;;;;;;;;;;;;26.33;32.26;101271.13;5012524;28;1654;-23
2021/09/28 12:17:25;;;;;;;;;;;;;;;26.42;32.52;101277.38;5014339;28;2102;-22
2021/09/28 12:19:51;;;;;;;;;;;;;;;26.03;32.67;101279.59;5012683;28;1910;-24
2021/09/28 12:22:25;;;;;;;;;;;;;;;25.98;33.11;101273.84;5018184;28;1733;-23
2021/09/28 12:24:53;;;;;;;;;;;;;;;26.29;33.09;101283.22;5015804;28;1550;-25
2021/09/28 12:27:19;;;;;;;;;;;;;;;26.64;32.56;101269.66;5015865;28;1538;-23
2021/09/28 12:29:44;;;;;;;;;;;;;;;26.68;32.07;101271.00;5016055;28;1638;-23
2021/09/28 12:32:22;;;;;;;;;;;;;;;26.80;32.51;101274.22;5015933;28;1464;-24
2021/09/28 12:34:52;;;;;;;;;;;;;;;26.92;32.03;101273.88;5015675;28;1454;-24
2021/09/28 12:37:17;;;;;;;;;;;;;;;26.23;32.54;101273.06;5017137;28;1506;-23
2021/09/28 12:39:58;;;;;;;;;;;;;;;26.06;32.53;101275.72;5015366;28;1968;-24
2021/09/28 12:42:23;;;;;;;;;;;;;;;26.12;32.80;101283.19;5014900;28;2027;-23
2021/09/28 12:44:54;;;;;;;;;;;;;;;26.45;32.29;101279.75;5015950;28;1667;-24
2021/09/28 12:47:23;;;;;;;;;;;;;;;26.80;31.72;101273.38;5012531;28;1621;-23
2021/09/28 12:49:48;;;;;;;;;;;;;;;26.64;31.98;101277.75;5015504;28;1240;-23
2021/09/28 12:52:13;;;;;;;;;;;;;;;27.05;31.64;101276.09;5018822;28;1523;-24
2021/09/28 12:54:39;;;;;;;;;;;;;;;27.00;31.00;101268.47;5012422;28;1421;-22